createdAt,value
2018-02-12T00:02:35.146Z,14.77
2018-02-12T00:17:38.080Z,15.00
2018-02-12T00:32:35.449Z,13.40
2018-02-12T00:47:34.444Z,13.93
2018-02-12T01:02:36.964Z,15.77
2018-02-12T01:17:34.882Z,14.20
2018-02-12T01:32:34.842Z,14.00
2018-02-12T01:47:41.083Z,13.70
2018-02-12T02:02:38.718Z,13.37
2018-02-12T02:17:37.447Z,16.60
2018-02-12T02:32:39.979Z,16.20
2018-02-12T02:47:38.872Z,16.10
2018-02-12T03:02:34.392Z,16.60
2018-02-12T03:17:35.335Z,17.50
2018-02-12T03:32:35.191Z,14.37
2018-02-12T03:47:36.026Z,17.53
2018-02-12T04:02:37.130Z,15.20
2018-02-12T04:17:34.589Z,16.13
2018-02-12T04:32:34.547Z,17.23
2018-02-12T04:47:35.401Z,16.87
2018-02-12T05:02:37.335Z,20.10
2018-02-12T05:17:34.814Z,19.80
2018-02-12T05:32:36.719Z,19.30
2018-02-12T05:47:34.690Z,16.10
2018-02-12T06:02:34.544Z,15.33
2018-02-12T06:17:34.484Z,16.27
2018-02-12T06:32:36.984Z,23.43
2018-02-12T06:47:36.851Z,20.10
2018-02-12T07:02:34.870Z,22.67
2018-02-12T07:17:40.310Z,19.10
2018-02-12T07:32:36.662Z,29.10
2018-02-12T07:47:37.768Z,24.40
2018-02-12T08:02:35.110Z,19.90
2018-02-12T08:17:36.528Z,21.97
2018-02-12T08:32:34.539Z,22.00
2018-02-12T08:47:38.900Z,23.30
2018-02-12T09:02:35.613Z,18.43
2018-02-12T09:17:34.015Z,19.63
2018-02-12T09:32:34.011Z,26.27
2018-02-12T09:47:33.936Z,23.20
2018-02-12T10:02:35.826Z,27.43
2018-02-12T10:17:34.271Z,27.53
2018-02-12T10:32:34.426Z,38.40
2018-02-12T10:47:34.143Z,20.43
2018-02-12T11:02:34.286Z,35.27
2018-02-12T11:17:37.452Z,41.00
2018-02-12T11:32:37.134Z,46.90
2018-02-12T11:47:36.423Z,54.80
2018-02-12T12:02:33.306Z,48.07
2018-02-12T12:17:34.501Z,49.20
2018-02-12T12:32:34.414Z,38.63
2018-02-12T12:47:34.648Z,40.90
2018-02-12T13:02:35.190Z,49.60
2018-02-12T13:17:36.896Z,46.80
2018-02-12T13:32:34.639Z,53.00
2018-02-12T13:47:36.524Z,55.80
2018-02-12T14:02:35.286Z,69.57
2018-02-12T14:17:34.287Z,65.70
2018-02-12T14:32:34.156Z,59.47
2018-02-12T14:47:34.092Z,69.17
2018-02-12T15:02:34.730Z,77.33
2018-02-12T15:17:34.607Z,74.80
2018-02-12T15:32:35.094Z,64.40
2018-02-12T15:47:35.046Z,58.07
2018-02-12T16:02:36.970Z,54.67
2018-02-12T16:17:34.957Z,65.17
2018-02-12T16:32:36.817Z,82.70
2018-02-12T16:47:37.282Z,96.13
2018-02-12T17:02:35.214Z,72.03
2018-02-12T17:17:34.639Z,61.03
2018-02-12T17:32:38.660Z,66.13
2018-02-12T17:47:38.232Z,99.80
2018-02-12T18:17:36.194Z,142.90
2018-02-12T18:47:39.621Z,147.13
2018-02-12T19:17:38.190Z,89.03
2018-02-12T19:32:41.012Z,77.80
2018-02-12T19:47:42.434Z,77.50
2018-02-12T20:02:51.481Z,69.07
2018-02-12T20:17:34.479Z,77.83
2018-02-12T20:32:35.730Z,97.73
2018-02-12T20:47:35.770Z,109.57
2018-02-12T21:02:35.554Z,124.87
2018-02-12T21:17:36.502Z,133.63
2018-02-12T21:32:34.662Z,134.10
2018-02-12T21:47:37.325Z,145.80
2018-02-12T22:02:36.970Z,126.00
2018-02-12T22:17:38.439Z,103.90
2018-02-12T22:32:35.803Z,93.60
2018-02-12T22:47:37.526Z,95.97
2018-02-12T23:02:37.063Z,87.20
2018-02-12T23:17:34.958Z,99.60
2018-02-12T23:32:37.876Z,70.77
2018-02-12T23:47:36.076Z,56.57
